Friday, November 24, 2017, 1:14 PM GMT
Back to Local

CYRJ, Roberval, Que.

Location: , , Canada Lat: 48.517
Local Time: 1:14 PM GMT (13:14 GMT) Lon: -72.267
Time Zone: GMT Elev: 587 ft

Show me the last for .
Show Decoded

2017-11-24 13:00 METAR CYRJ 241300Z 24006KT 40SM FEW025 BKN120 M12/M16 A2988 RMK SC1AC6 SLP133 =
2017-11-24 12:00 METAR CYRJ 241200Z 24007KT 25SM FEW025 BKN160 M12/M16 A2988 RMK SC1AC5 SLP134 =
2017-11-24 11:00 METAR CYRJ 241100Z 26007KT 25SM FEW025 FEW220 M13/M16 A2986 RMK SC1CI2 SC TR
                 SLP128 =
2017-11-24 10:00 METAR CYRJ 241000Z 29005KT 25SM FEW030 M12/M16 A2984 RMK SC1 SC TR SLP120 =
2017-11-24 09:00 METAR CYRJ 240900Z 30009G16KT 25SM FEW030 M10/M15 A2981 RMK SC1 SC TR SLP110 =
2017-11-24 08:00 METAR CYRJ 240800Z 31013G19KT 25SM DRSN FEW060 M09/M15 A2978 RMK SC1 SLP098 =
2017-11-24 07:26 METAR CYRJ 240726Z 31020G25KT 25SM DRSN SCT073 M08/M14 A2976 RMK AC3 SLP093 =
2017-11-24 07:00 METAR CYRJ 240700Z 31015G23KT 25SM -SHSN BKN076 M07/M11 A2974 RMK AC7 CVCTV CLD
                 EMBD PRESRR SLP086 =
2017-11-24 06:39 METAR CYRJ 240639Z 31014G23KT 2SM -SHSN OVC021 M07/M09 A2972 RMK SN6SC2 CVCTV
                 CLD EMBD SLP078
2017-11-24 06:13 METAR CYRJ 240613Z 31015G20KT 5SM -SHSN SCT035 OVC060 M06/M10 A2970 RMK SC3SC5
                 CVCTV CLD EMBD PRESRR SLP072 =
2017-11-24 06:00 METAR CYRJ 240600Z 32019KT 2SM -SHSN OVC033 M06/M10 A2969 RMK SN6SC2 CVCTV CLD
                 EMBD SLP067 =
2017-11-24 05:48 METAR CYRJ 240548Z 32014G23KT 2SM -SHSN OVC032 M06/M08 A2968 RMK SN6SC2 CVCTV
                 CLD EMBD SLP066 =
2017-11-24 05:27 METAR CYRJ 240527Z 31020G25KT 220V320 1SM -SHSN VV012 M05/M07 A2967 RMK SN8
                 CVCTV CLD EMBD PRESRR SLP059 =
2017-11-24 05:00 METAR CYRJ 240500Z 23011G17KT 25SM -SHSN OVC031 M03/M06 A2964 RMK SC8 CVCTV CLD
                 EMBD SLP049 =
2017-11-24 04:00 METAR CYRJ 240400Z 22019G24KT 25SM -SHSN OVC082 M03/M07 A2961 RMK AC8 CVCTV CLD
                 EMBD SLP041 =
2017-11-24 03:00 METAR CYRJ 240300Z 22017G23KT 25SM -SHSN FEW020 OVC083 M04/M07 A2962 RMK SC1AC8
                 SC TR CVCTV CLD EMBD SLP042 =
2017-11-24 02:00 METAR CYRJ 240200Z 22016G24KT 25SM -SHSN FEW060 BKN120 M04/M07 A2963 RMK SC1AC6
                 CVCTV CLD EMBD SLP046 =
2017-11-24 01:00 METAR CYRJ 240100Z 22014G21KT 25SM -SHSN OVC062 M04/M07 A2965 RMK SC8 CVCTV CLD
                 EMBD SLP056 =
2017-11-24 00:45 METAR CYRJ 240045Z 22013G24KT 5SM -SHSN OVC048 M05/M07 A2966 RMK SC8 CVCTV CLD
                 EMBD SLP057 =
2017-11-24 00:28 METAR CYRJ 240028Z 22014G22KT 2SM -SHSN OVC050 M05/M08 A2967 RMK SN6SC2 CVCTV
                 CLD EMBD SLP060 =
2017-11-24 00:00 METAR CYRJ 240000Z 22015G21KT 25SM -SHSN FEW025 OVC047 M05/M08 A2968 RMK SC1SC8
                 SC TR CVCTV CLD EMBD SLP065 =
2017-11-23 23:00 METAR CYRJ 232300Z 22010G17KT 25SM -SHSN FEW025 OVC053 M05/M09 A2969 RMK SC1SC8
                 SC TR CVCTV CLD EMBD SLP069 =
2017-11-23 22:00 METAR CYRJ 232200Z 21013G19KT 20SM -SHSN BKN059 M06/M09 A2971 RMK SC7 CVCTV CLD
                 EMBD SLP075 =
2017-11-23 21:00 METAR CYRJ 232100Z 22012G18KT 20SM -SHSN FEW040 OVC072 M06/M09 A2973 RMK SC1AS8
                 SC TR CVCTV CLD EMBD SLP081 =
2017-11-23 20:00 METAR CYRJ 232000Z 20012G19KT 170V230 20SM -SHSN FEW040 OVC087 M06/M10 A2974 RMK
                 SC1AS8 SC TR CVCTV CLD EMBD SLP086 =
2017-11-23 19:00 METAR CYRJ 231900Z 21010G17KT 180V250 25SM -SHSN FEW020 OVC091 M06/M10 A2976 RMK
                 SC1AS8 SC TR CVCTV CLD EMBD SLP092 =
2017-11-23 18:00 METAR CYRJ 231800Z 21019G25KT 40SM FEW025 OVC083 M06/M11 A2977 RMK SC1AS8 SC TR
                 SLP095 =
2017-11-23 17:00 METAR CYRJ 231700Z 22013G29KT 40SM BKN120 M06/M12 A2980 RMK AC7 PRESFR SLP104 =
2017-11-23 16:00 METAR CYRJ 231600Z 21010KT 40SM FEW046 BKN120 M07/M12 A2986 RMK SC1AC7 SC TR
                 SLP127 =
2017-11-23 15:00 METAR CYRJ 231500Z 22012KT 40SM FEW046 SCT120 SCT220 M06/M13 A2990 RMK SC1AC3CI1
                 SC TR CI TR SLP139 =
2017-11-23 14:00 METAR CYRJ 231400Z 23009KT 40SM FEW046 FEW120 SCT220 M08/M12 A2992 RMK SC1AC2CI1
                 SC TR SLP148 =

Support USWX by starting your Amazon purchase here.